Time;durP1;ratioP1;P1;durP2;ratioP2;P2;SDS_P1;SDS_P2;PMS_P1;PMS_P2;Temp;Humidity;BMP_temperature;BMP_pressure;BME280_temperature;BME280_humidity;BME280_pressure;Samples;Min_cycle;Max_cycle;Signal;HPM_P1;HPM_P2
2022/10/07 00:14:28;;;;;;;38.00;24.60;;;;;;;7.66;80.70;100103.59;420087;1294;95882;-40
2022/10/07 00:24:35;;;;;;;34.20;22.40;;;;;;;7.71;81.01;100099.47;420128;1301;107258;-40
2022/10/07 00:34:42;;;;;;;37.40;25.00;;;;;;;7.75;80.97;100091.60;420132;1294;96834;-40
2022/10/07 00:44:49;;;;;;;36.80;24.10;;;;;;;7.58;80.70;100089.92;420147;1301;108220;-40
2022/10/07 00:55:01;;;;;;;37.60;23.30;;;;;;;7.46;80.95;100084.95;420296;1301;107921;-40
2022/10/07 01:05:13;;;;;;;32.90;21.60;;;;;;;7.38;81.07;100083.46;420883;1298;96177;-40
2022/10/07 01:15:18;;;;;;;35.00;21.80;;;;;;;7.38;81.31;100077.64;421692;1283;107453;-39
2022/10/07 01:25:32;;;;;;;40.20;25.50;;;;;;;7.39;81.35;100072.08;421513;1298;96146;-39
2022/10/07 01:35:43;;;;;;;38.90;24.10;;;;;;;7.28;81.52;100062.91;421663;1299;96815;-39
2022/10/07 01:45:54;;;;;;;33.60;20.20;;;;;;;7.17;81.26;100052.95;421450;1299;108388;-39
2022/10/07 01:56:11;;;;;;;28.80;20.60;;;;;;;7.12;81.54;100043.46;421466;1299;108709;-40
2022/10/07 02:06:22;;;;;;;28.00;19.20;;;;;;;7.18;81.70;100043.94;421574;1289;95329;-40
2022/10/07 02:16:33;;;;;;;32.60;20.80;;;;;;;7.15;81.55;100041.59;421453;1301;107947;-41
2022/10/07 02:26:43;;;;;;;40.20;24.30;;;;;;;7.05;81.78;100036.44;421129;1299;96165;-40
2022/10/07 02:46:58;;;;;;;27.40;19.80;;;;;;;6.96;81.47;100025.94;421599;1289;107545;-40
2022/10/07 02:57:08;;;;;;;27.00;20.70;;;;;;;6.69;81.47;100015.09;421174;1298;108056;-39
2022/10/07 03:07:14;;;;;;;30.60;21.20;;;;;;;6.65;81.90;100014.13;421249;1284;96815;-40
2022/10/07 03:17:21;;;;;;;32.90;21.40;;;;;;;6.64;82.00;100008.80;421453;1295;107274;-41
2022/10/07 03:27:29;;;;;;;31.40;22.10;;;;;;;6.61;82.08;100008.23;421572;1296;96455;-39
2022/10/07 03:47:42;;;;;;;39.40;25.30;;;;;;;6.59;82.08;99997.12;421344;1298;107724;-39
2022/10/07 03:57:51;;;;;;;44.30;28.40;;;;;;;6.35;82.20;99998.58;421756;1299;95619;-40
2022/10/07 04:08:05;;;;;;;35.80;23.00;;;;;;;6.14;82.27;99989.84;421661;1299;109222;-38
2022/10/07 04:18:12;;;;;;;36.50;23.40;;;;;;;6.10;82.48;99980.79;421643;1292;108037;-39
2022/10/07 04:28:22;;;;;;;42.00;30.80;;;;;;;6.11;82.44;99971.27;421657;1299;96137;-39
2022/10/07 04:38:31;;;;;;;57.50;38.10;;;;;;;6.10;82.53;99963.60;421155;1299;107911;-40
2022/10/07 04:48:38;;;;;;;48.70;31.00;;;;;;;6.05;82.64;99956.02;421475;1296;108268;-40
2022/10/07 04:58:45;;;;;;;53.70;36.60;;;;;;;5.96;82.62;99951.02;421765;1292;96988;-40
2022/10/07 05:08:53;;;;;;;38.00;24.40;;;;;;;5.90;82.75;99949.70;421846;1290;108539;-39
2022/10/07 05:18:59;;;;;;;43.40;27.70;;;;;;;5.82;82.94;99943.52;421396;1296;96134;-39
2022/10/07 05:29:06;;;;;;;59.80;38.10;;;;;;;5.83;82.99;99941.03;420916;1290;108570;-40
2022/10/07 05:49:20;;;;;;;52.80;35.20;;;;;;;6.02;83.14;99937.78;420757;1298;96329;-41
2022/10/07 05:59:27;;;;;;;53.70;36.80;;;;;;;6.24;83.25;99937.59;420664;1288;107030;-40
2022/10/07 06:19:59;;;;;;;37.20;23.30;;;;;;;8.67;84.20;99928.84;422090;1296;109134;-40
2022/10/07 06:30:11;;;;;;;51.20;28.00;;;;;;;9.70;83.32;99927.86;422457;1296;107226;-39
2022/10/07 06:40:19;;;;;;;38.00;25.10;;;;;;;10.34;82.48;99924.90;422034;1296;107407;-40
2022/10/07 06:50:26;;;;;;;37.40;23.50;;;;;;;10.47;81.96;99915.86;422121;1297;95804;-39
2022/10/07 07:00:33;;;;;;;48.90;26.40;;;;;;;10.66;82.49;99917.38;422383;1296;109643;-39
2022/10/07 07:10:43;;;;;;;39.10;21.70;;;;;;;11.25;82.97;99915.43;422158;1302;108481;-39
2022/10/07 07:20:50;;;;;;;26.30;15.70;;;;;;;11.92;82.79;99913.42;421992;1295;96393;-40
2022/10/07 07:30:57;;;;;;;22.30;13.10;;;;;;;12.65;82.69;99896.20;422085;1296;107895;-41
2022/10/07 07:41:06;;;;;;;13.20;9.90;;;;;;;13.50;82.59;99887.44;422231;1295;120997;-40
2022/10/07 07:51:12;;;;;;;20.70;10.20;;;;;;;14.66;82.46;99886.65;422142;1296;95588;-40
2022/10/07 08:01:19;;;;;;;15.10;9.90;;;;;;;15.66;81.27;99876.38;422042;1295;108700;-39
2022/10/07 08:11:27;;;;;;;18.30;9.50;;;;;;;16.00;79.28;99872.33;422367;1295;108987;-39
2022/10/07 08:21:35;;;;;;;17.50;7.80;;;;;;;16.11;77.85;99866.65;422242;1303;96493;-40
2022/10/07 08:31:43;;;;;;;10.90;6.30;;;;;;;16.34;76.18;99848.16;422411;1295;96262;-40
2022/10/07 08:41:55;;;;;;;13.50;4.90;;;;;;;16.63;74.93;99836.98;422178;1295;110339;-38
2022/10/07 08:52:05;;;;;;;14.00;3.60;;;;;;;16.99;74.16;99825.40;422452;1295;107382;-39
2022/10/07 09:02:15;;;;;;;12.00;3.80;;;;;;;17.40;73.26;99817.58;422162;1295;108058;-39
2022/10/07 09:12:24;;;;;;;7.20;4.30;;;;;;;17.45;71.72;99800.16;422540;1296;96165;-39
2022/10/07 09:22:36;;;;;;;9.50;5.90;;;;;;;17.71;71.64;99795.30;422308;1295;96844;-42
2022/10/07 09:32:43;;;;;;;18.90;7.60;;;;;;;17.94;71.02;99783.39;422164;1295;108587;-41
2022/10/07 09:42:53;;;;;;;8.40;6.90;;;;;;;17.99;70.66;99761.36;422143;1295;107206;-44
2022/10/07 09:53:01;;;;;;;15.10;7.50;;;;;;;18.10;70.25;99750.45;422022;1289;108518;-40
2022/10/07 10:03:08;;;;;;;7.70;6.40;;;;;;;18.15;69.05;99743.17;421983;1295;96173;-41
2022/10/07 10:13:27;;;;;;;11.80;7.00;;;;;;;18.26;68.92;99732.46;422408;1294;96165;-39
2022/10/07 10:23:37;;;;;;;17.20;7.10;;;;;;;18.45;68.40;99725.42;422980;1279;109341;-39
2022/10/07 10:33:42;;;;;;;10.30;5.30;;;;;;;18.65;68.12;99708.61;422501;1287;108339;-39
2022/10/07 10:43:59;;;;;;;4.00;3.40;;;;;;;18.97;67.91;99690.26;422323;1289;463374;-40
2022/10/07 10:54:09;;;;;;;8.10;4.60;;;;;;;19.26;67.03;99673.04;422649;1295;95772;-40
2022/10/07 11:04:24;;;;;;;10.10;5.00;;;;;;;19.44;66.87;99648.83;422711;1296;108504;-39
2022/10/07 11:14:36;;;;;;;6.00;4.10;;;;;;;19.52;66.18;99643.94;422713;1302;109511;-39
2022/10/07 11:34:56;;;;;;;5.10;3.70;;;;;;;19.93;65.26;99607.71;422495;1295;96176;-41
2022/10/07 11:45:05;;;;;;;4.70;3.20;;;;;;;19.81;64.98;99592.17;422432;1286;110362;-40
2022/10/07 11:55:09;;;;;;;;;;;;;;;19.95;65.15;99577.33;422687;1292;107721;-40
2022/10/07 12:05:49;;;;;;;8.20;3.60;;;;;;;19.95;64.15;99556.93;422797;1303;96200;-39
2022/10/07 12:16:17;;;;;;;9.60;3.70;;;;;;;19.93;63.36;99540.18;422987;1296;96815;-39
2022/10/07 12:26:50;;;;;;;5.90;3.70;;;;;;;19.73;63.01;99533.08;422932;1292;108529;-40
2022/10/07 12:37:34;;;;;;;6.30;3.10;;;;;;;19.62;63.43;99520.14;422814;1295;108785;-40
2022/10/07 12:47:43;;;;;;;7.20;3.20;;;;;;;19.75;63.17;99507.23;422780;1289;108498;-42
2022/10/07 12:57:53;;;;;;;8.00;3.60;;;;;;;19.86;63.09;99498.30;422456;1286;96162;-41
2022/10/07 13:08:34;;;;;;;7.80;3.90;;;;;;;19.83;62.52;99485.00;422828;1292;108774;-41
2022/10/07 13:28:53;;;;;;;7.40;3.70;;;;;;;19.88;61.53;99448.92;422914;1292;107992;-41
2022/10/07 13:39:10;;;;;;;9.20;3.30;;;;;;;19.79;61.68;99433.69;422887;1296;96338;-41
2022/10/07 13:49:21;;;;;;;9.60;4.70;;;;;;;19.61;61.79;99417.17;422464;1295;96297;-41
2022/10/07 13:59:35;;;;;;;8.40;4.30;;;;;;;19.53;62.06;99399.78;423512;1294;109478;-40
2022/10/07 14:09:49;;;;;;;6.30;4.20;;;;;;;19.43;62.22;99384.48;423279;1295;108168;-40
2022/10/07 14:40:38;;;;;;;7.90;4.30;;;;;;;19.09;63.38;99341.31;422726;1296;107583;-40
2022/10/07 14:50:45;;;;;;;8.10;5.30;;;;;;;18.97;63.30;99326.42;422537;1296;107757;-40
2022/10/07 15:00:52;;;;;;;9.70;5.60;;;;;;;18.78;63.55;99312.95;422684;1296;106930;-40
2022/10/07 15:11:01;;;;;;;8.40;4.40;;;;;;;18.63;63.83;99305.94;422809;1295;96143;-40
2022/10/07 15:21:07;;;;;;;9.50;5.10;;;;;;;18.44;64.04;99299.08;422338;1294;108904;-41
2022/10/07 15:31:16;;;;;;;15.20;5.20;;;;;;;18.19;64.42;99296.66;422551;1292;107877;-41
2022/10/07 15:41:31;;;;;;;10.90;5.50;;;;;;;17.96;64.76;99290.80;422739;1293;97874;-41
2022/10/07 15:51:39;;;;;;;11.30;4.80;;;;;;;17.70;65.33;99279.01;422632;1295;111145;-41
2022/10/07 16:01:50;;;;;;;13.00;6.30;;;;;;;17.33;66.08;99273.27;422859;1295;108189;-41
2022/10/07 16:11:58;;;;;;;12.70;7.60;;;;;;;16.71;66.68;99273.04;422941;1295;97864;-41
2022/10/07 16:22:04;;;;;;;14.80;7.20;;;;;;;16.10;67.46;99273.92;422323;1288;109916;-41
2022/10/07 16:32:13;;;;;;;17.20;7.40;;;;;;;15.58;68.14;99262.91;422561;1292;106635;-41
2022/10/07 16:42:19;;;;;;;22.00;11.60;;;;;;;15.08;68.86;99262.63;422765;1288;97837;-41
2022/10/07 16:52:25;;;;;;;22.10;12.30;;;;;;;14.79;69.58;99264.45;422687;1286;108663;-40
2022/10/07 17:02:32;;;;;;;44.60;14.60;;;;;;;14.46;70.19;99260.89;422572;1295;97512;-40
2022/10/07 17:12:39;;;;;;;28.70;19.50;;;;;;;14.23;70.88;99251.89;422771;1292;97528;-40
2022/10/07 17:22:46;;;;;;;50.80;29.10;;;;;;;14.05;71.23;99245.17;422178;1286;111125;-41
2022/10/07 17:32:53;;;;;;;34.40;21.10;;;;;;;14.00;71.71;99242.09;422767;1286;108360;-41
2022/10/07 17:53:07;;;;;;;41.20;24.40;;;;;;;13.86;72.51;99235.21;422784;1295;107964;-40
2022/10/07 18:03:15;;;;;;;32.40;20.00;;;;;;;13.64;72.85;99226.27;422443;1294;97480;-40
2022/10/07 18:23:47;;;;;;;36.00;26.80;;;;;;;13.41;73.95;99220.31;422896;1295;110807;-40
2022/10/07 18:33:54;;;;;;;37.40;26.50;;;;;;;13.64;74.26;99215.33;422026;1295;109094;-40
2022/10/07 18:44:01;;;;;;;54.30;28.90;;;;;;;13.89;74.64;99200.95;422520;1286;97880;-39
2022/10/07 18:54:10;;;;;;;45.90;28.80;;;;;;;14.07;74.69;99192.94;422729;1294;108758;-40
2022/10/07 19:04:17;;;;;;;46.00;30.00;;;;;;;14.21;74.95;99180.95;422597;1295;96657;-40
2022/10/07 19:14:29;;;;;;;43.80;29.50;;;;;;;14.31;75.27;99176.75;422592;1295;111213;-39
2022/10/07 19:35:02;;;;;;;46.40;32.60;;;;;;;13.95;75.15;99177.17;422559;1296;97874;-39
2022/10/07 19:45:12;;;;;;;51.90;38.10;;;;;;;13.76;75.33;99168.11;422297;1286;108167;-40
2022/10/07 19:55:20;;;;;;;59.90;38.50;;;;;;;13.57;75.58;99160.40;422594;1295;98169;-40
2022/10/07 20:05:28;;;;;;;61.60;39.20;;;;;;;13.49;75.90;99153.13;422352;1296;111625;-41
2022/10/07 20:15:36;;;;;;;62.90;40.90;;;;;;;13.35;75.99;99151.08;422675;1295;107348;-40
2022/10/07 20:25:44;;;;;;;67.10;41.70;;;;;;;13.19;76.23;99145.01;422453;1292;98210;-40
2022/10/07 20:45:58;;;;;;;66.10;40.90;;;;;;;12.80;76.59;99124.08;422431;1296;96646;-41
2022/10/07 20:56:04;;;;;;;59.90;39.90;;;;;;;12.65;76.99;99114.92;422514;1296;110920;-41
2022/10/07 21:06:11;;;;;;;63.10;39.40;;;;;;;12.56;77.37;99114.52;422958;1295;108689;-40
2022/10/07 21:36:32;;;;;;;58.20;38.50;;;;;;;12.36;77.92;99100.80;422420;1295;97856;-41
2022/10/07 21:56:48;;;;;;;53.50;37.90;;;;;;;12.02;78.07;99093.49;422854;1288;109456;-41
2022/10/07 22:17:22;;;;;;;56.90;37.00;;;;;;;11.76;78.84;99075.27;422756;1293;107304;-41
2022/10/07 22:27:29;;;;;;;53.80;37.90;;;;;;;11.68;78.84;99064.42;422721;1292;96676;-41
2022/10/07 22:37:37;;;;;;;55.00;34.70;;;;;;;11.53;79.08;99056.65;422481;1279;110071;-41
2022/10/07 22:47:44;;;;;;;55.70;34.10;;;;;;;11.49;79.57;99046.91;422120;1289;662767;-40
2022/10/07 23:07:58;;;;;;;52.90;35.10;;;;;;;11.40;79.83;99031.91;422526;1287;107855;-41
2022/10/07 23:18:04;;;;;;;58.20;39.20;;;;;;;11.31;80.14;99030.39;422450;1295;97902;-40
2022/10/07 23:28:11;;;;;;;53.30;37.30;;;;;;;11.21;80.21;99024.26;422506;1294;110538;-40
2022/10/07 23:38:19;;;;;;;55.50;35.70;;;;;;;11.12;80.37;99020.45;422612;1296;107109;-40
2022/10/07 23:48:26;;;;;;;51.60;35.60;;;;;;;11.07;80.62;99018.27;422666;1291;97873;-40
2022/10/07 23:58:34;;;;;;;52.10;34.00;;;;;;;11.14;80.80;99006.08;422608;1292;107218;-41
